createdAt,value
2018-11-23T00:02:20.920Z,82.15
2018-11-23T00:04:48.039Z,79.97
2018-11-23T00:07:15.133Z,84.83
2018-11-23T00:09:42.196Z,87.60
2018-11-23T00:12:09.270Z,84.35
2018-11-23T00:14:36.324Z,95.42
2018-11-23T00:17:04.005Z,86.30
2018-11-23T00:19:31.156Z,91.95
2018-11-23T00:21:58.228Z,81.32
2018-11-23T00:24:25.991Z,90.65
2018-11-23T00:26:53.085Z,119.13
2018-11-23T00:29:20.156Z,94.45
2018-11-23T00:31:47.234Z,92.90
2018-11-23T00:34:14.304Z,89.80
2018-11-23T00:36:41.373Z,98.07
2018-11-23T00:39:08.761Z,96.72
2018-11-23T00:41:36.004Z,94.92
2018-11-23T00:44:03.174Z,84.10
2018-11-23T00:46:30.512Z,88.25
2018-11-23T00:48:57.761Z,91.40
2018-11-23T00:51:24.867Z,91.45
2018-11-23T00:53:51.980Z,78.67
2018-11-23T00:56:19.084Z,85.85
2018-11-23T00:58:46.145Z,88.30
2018-11-23T01:01:13.240Z,100.97
2018-11-23T01:03:40.293Z,90.85
2018-11-23T01:06:07.381Z,96.20
2018-11-23T01:08:34.456Z,91.72
2018-11-23T01:11:01.523Z,105.65
2018-11-23T01:13:28.616Z,87.12
2018-11-23T01:15:55.696Z,94.85
2018-11-23T01:18:22.794Z,97.35
2018-11-23T01:20:49.839Z,88.72
2018-11-23T01:23:16.912Z,90.70
2018-11-23T01:25:43.993Z,100.72
2018-11-23T01:28:11.339Z,82.37
2018-11-23T01:30:38.401Z,91.55
2018-11-23T01:33:05.471Z,87.33
2018-11-23T01:35:32.994Z,94.60
2018-11-23T01:38:00.061Z,87.55
2018-11-23T01:40:28.620Z,96.15
2018-11-23T01:42:56.279Z,95.10
2018-11-23T01:45:23.352Z,89.67
2018-11-23T01:47:50.417Z,92.25
2018-11-23T01:50:19.834Z,91.92
2018-11-23T01:52:47.877Z,100.72
2018-11-23T01:55:15.960Z,96.57
2018-11-23T01:57:43.408Z,85.42
2018-11-23T02:00:19.147Z,94.70
2018-11-23T02:02:50.544Z,84.83
2018-11-23T02:05:26.576Z,98.58
2018-11-23T02:07:58.126Z,90.35
2018-11-23T02:10:26.168Z,77.95
2018-11-23T02:12:53.221Z,91.42
2018-11-23T02:15:21.344Z,90.32
2018-11-23T02:17:48.992Z,96.63
2018-11-23T02:20:17.260Z,93.72
2018-11-23T02:22:44.363Z,88.82
2018-11-23T02:25:11.457Z,101.10
2018-11-23T02:27:38.544Z,89.45
2018-11-23T02:30:08.877Z,85.57
2018-11-23T02:32:35.964Z,99.42
2018-11-23T02:35:03.080Z,86.25
2018-11-23T02:37:30.140Z,95.92
2018-11-23T02:39:57.200Z,105.00
2018-11-23T02:42:24.399Z,96.17
2018-11-23T02:44:51.469Z,94.92
2018-11-23T02:47:18.557Z,90.67
2018-11-23T02:49:45.625Z,93.42
2018-11-23T02:52:12.698Z,95.42
2018-11-23T02:54:39.772Z,81.08
2018-11-23T02:57:06.897Z,89.92
2018-11-23T02:59:33.976Z,98.50
2018-11-23T03:02:01.054Z,91.42
2018-11-23T03:04:28.208Z,82.72
2018-11-23T03:06:55.293Z,77.40
2018-11-23T03:09:22.356Z,87.82
2018-11-23T03:11:49.444Z,95.62
2018-11-23T03:14:16.529Z,90.53
2018-11-23T03:16:43.604Z,96.92
2018-11-23T03:19:10.679Z,87.60
2018-11-23T03:21:37.937Z,102.75
2018-11-23T03:24:05.033Z,82.12
2018-11-23T03:26:32.095Z,95.25
2018-11-23T03:28:59.175Z,101.20
2018-11-23T03:31:26.428Z,80.35
2018-11-23T03:33:53.983Z,94.92
2018-11-23T03:36:22.084Z,98.20
2018-11-23T03:38:49.435Z,90.47
2018-11-23T03:41:16.548Z,106.37
2018-11-23T03:43:43.825Z,92.85
2018-11-23T03:46:11.061Z,89.55
2018-11-23T03:48:38.120Z,92.50
2018-11-23T03:51:05.505Z,94.00
2018-11-23T03:53:32.589Z,94.28
2018-11-23T03:55:59.661Z,94.20
2018-11-23T03:58:26.920Z,84.25
2018-11-23T04:00:53.974Z,90.03
2018-11-23T04:03:21.056Z,88.58
2018-11-23T04:05:48.161Z,95.80
2018-11-23T04:08:15.263Z,94.77
2018-11-23T04:10:42.333Z,82.42
2018-11-23T04:13:09.529Z,86.22
2018-11-23T04:15:36.597Z,90.20
2018-11-23T04:18:03.697Z,94.00
2018-11-23T04:20:30.958Z,85.45
2018-11-23T04:22:58.033Z,89.50
2018-11-23T04:25:25.090Z,92.42
2018-11-23T04:27:52.404Z,89.22
2018-11-23T04:30:19.485Z,81.75
2018-11-23T04:32:47.429Z,90.50
2018-11-23T04:35:15.822Z,89.97
2018-11-23T04:37:43.556Z,86.50
2018-11-23T04:40:11.724Z,88.35
2018-11-23T04:42:39.120Z,98.92
2018-11-23T04:45:06.432Z,93.67
2018-11-23T04:47:33.505Z,90.05
2018-11-23T04:50:01.325Z,85.38
2018-11-23T04:52:27.670Z,77.95
2018-11-23T04:54:54.940Z,80.97
2018-11-23T04:57:22.001Z,86.82
2018-11-23T04:59:49.848Z,89.05
2018-11-23T05:02:17.426Z,85.97
2018-11-23T05:04:44.565Z,93.30
2018-11-23T05:07:11.633Z,75.47
2018-11-23T05:09:38.728Z,80.10
2018-11-23T05:12:05.819Z,92.00
2018-11-23T05:14:32.879Z,90.00
2018-11-23T05:16:59.976Z,80.25
2018-11-23T05:19:27.045Z,80.22
2018-11-23T05:21:54.116Z,75.78
2018-11-23T05:24:21.240Z,87.70
2018-11-23T05:26:48.345Z,89.65
2018-11-23T05:29:15.437Z,77.62
2018-11-23T05:31:42.692Z,79.97
2018-11-23T05:34:09.807Z,72.53
2018-11-23T05:36:37.637Z,88.50
2018-11-23T05:39:06.557Z,75.97
2018-11-23T05:41:33.637Z,91.53
2018-11-23T05:44:00.760Z,87.78
2018-11-23T05:46:27.808Z,77.30
2018-11-23T05:48:54.885Z,84.03
2018-11-23T05:51:21.941Z,82.60
2018-11-23T05:53:49.016Z,80.28
2018-11-23T05:56:16.104Z,83.35
2018-11-23T05:58:43.180Z,91.22
2018-11-23T06:01:10.252Z,85.10
2018-11-23T06:03:37.293Z,80.47
2018-11-23T06:06:04.577Z,79.03
2018-11-23T06:08:31.644Z,86.53
2018-11-23T06:10:58.720Z,88.87
2018-11-23T06:13:25.789Z,85.75
2018-11-23T06:15:53.121Z,82.53
2018-11-23T06:18:20.172Z,89.52
2018-11-23T06:20:47.310Z,89.42
2018-11-23T06:23:14.448Z,85.17
2018-11-23T06:25:48.025Z,82.88
2018-11-23T06:28:15.105Z,84.87
2018-11-23T06:30:42.524Z,69.58
2018-11-23T06:33:39.757Z,80.38
2018-11-23T06:36:07.225Z,76.80
2018-11-23T06:38:34.333Z,79.90
2018-11-23T06:41:01.432Z,79.87
2018-11-23T06:43:28.514Z,85.62
2018-11-23T06:45:56.385Z,85.92
2018-11-23T06:48:23.484Z,88.10
2018-11-23T06:50:50.561Z,80.05
2018-11-23T06:53:17.686Z,81.72
2018-11-23T06:55:44.786Z,84.07
2018-11-23T06:58:11.904Z,90.80
2018-11-23T07:00:38.968Z,94.92
2018-11-23T07:03:06.056Z,86.05
2018-11-23T07:05:33.464Z,81.37
2018-11-23T07:08:00.516Z,90.17
2018-11-23T07:10:27.580Z,81.80
2018-11-23T07:12:55.098Z,86.08
2018-11-23T07:15:22.316Z,97.10
2018-11-23T07:17:49.476Z,83.17
2018-11-23T07:20:16.599Z,95.28
2018-11-23T07:22:43.780Z,83.47
2018-11-23T07:25:12.173Z,84.35
2018-11-23T07:27:39.543Z,89.52
2018-11-23T07:30:12.680Z,89.60
2018-11-23T07:32:39.761Z,80.83
2018-11-23T07:35:06.876Z,95.05
2018-11-23T07:37:34.769Z,76.82
2018-11-23T07:40:14.036Z,90.95
2018-11-23T07:42:41.171Z,125.67
2018-11-23T07:45:08.253Z,136.03
2018-11-23T07:47:35.665Z,124.45
2018-11-23T07:50:03.128Z,106.78
2018-11-23T07:52:30.245Z,154.85
2018-11-23T07:54:57.336Z,104.72
2018-11-23T07:57:24.948Z,95.77
2018-11-23T07:59:52.401Z,108.57
2018-11-23T08:02:19.729Z,86.05
2018-11-23T08:04:46.786Z,87.25
2018-11-23T08:07:13.895Z,83.78
2018-11-23T08:09:41.440Z,80.80
2018-11-23T08:12:08.508Z,94.13
2018-11-23T08:14:36.149Z,89.62
2018-11-23T08:17:03.561Z,80.20
2018-11-23T08:19:30.651Z,91.20
2018-11-23T08:21:58.018Z,86.42
2018-11-23T08:24:25.108Z,89.45
2018-11-23T08:26:52.196Z,82.37
2018-11-23T08:29:19.532Z,79.47
2018-11-23T08:31:46.633Z,89.25
2018-11-23T08:34:13.725Z,80.00
2018-11-23T08:36:41.445Z,84.62
2018-11-23T08:39:09.897Z,83.85
2018-11-23T08:41:37.773Z,72.75
2018-11-23T08:44:05.236Z,79.37
2018-11-23T08:46:32.777Z,74.30
2018-11-23T08:49:00.229Z,71.37
2018-11-23T08:51:27.296Z,71.72
2018-11-23T08:53:54.408Z,68.52
2018-11-23T08:56:21.676Z,76.72
2018-11-23T08:58:48.803Z,75.62
2018-11-23T09:01:15.926Z,77.92
2018-11-23T09:03:43.016Z,73.22
2018-11-23T09:06:10.103Z,90.03
2018-11-23T09:08:37.549Z,76.07
2018-11-23T09:11:05.748Z,76.00
2018-11-23T09:13:32.824Z,71.28
2018-11-23T09:15:59.918Z,81.45
2018-11-23T09:18:27.006Z,71.53
2018-11-23T09:20:54.508Z,73.90
2018-11-23T09:23:22.214Z,69.47
2018-11-23T09:25:49.881Z,72.37
2018-11-23T09:28:18.074Z,68.75
2018-11-23T09:30:45.562Z,69.22
2018-11-23T09:33:12.660Z,76.53
2018-11-23T09:35:40.588Z,63.73
2018-11-23T09:38:07.672Z,81.65
2018-11-23T09:40:34.750Z,68.47
2018-11-23T09:43:01.842Z,79.30
2018-11-23T09:45:30.431Z,75.10
2018-11-23T09:48:01.764Z,72.47
2018-11-23T09:50:29.104Z,76.25
2018-11-23T09:52:57.922Z,71.28
2018-11-23T09:55:25.861Z,81.53
2018-11-23T09:57:53.113Z,76.55
2018-11-23T10:00:22.313Z,86.15
2018-11-23T10:02:50.696Z,86.42
2018-11-23T10:05:18.269Z,80.10
2018-11-23T10:07:46.633Z,70.12
2018-11-23T10:10:14.684Z,72.12
2018-11-23T10:12:42.272Z,67.60
2018-11-23T10:15:10.942Z,64.25
2018-11-23T10:17:38.258Z,64.00
2018-11-23T10:20:07.792Z,70.85
2018-11-23T10:22:34.928Z,74.12
2018-11-23T10:25:02.026Z,69.70
2018-11-23T10:27:29.120Z,66.67
2018-11-23T10:29:56.184Z,61.05
2018-11-23T10:32:23.558Z,67.65
2018-11-23T10:34:50.724Z,65.60
2018-11-23T10:37:18.110Z,67.20
2018-11-23T10:39:45.265Z,67.60
2018-11-23T10:42:12.329Z,66.28
2018-11-23T10:44:39.419Z,62.25
2018-11-23T10:47:06.863Z,81.70
2018-11-23T10:49:33.921Z,69.75
2018-11-23T10:52:00.985Z,68.28
2018-11-23T10:54:28.054Z,67.20
2018-11-23T10:56:55.113Z,71.25
2018-11-23T10:59:22.458Z,70.10
2018-11-23T11:01:55.972Z,66.95
2018-11-23T11:04:28.873Z,77.00
2018-11-23T11:07:00.769Z,91.10
2018-11-23T11:09:28.382Z,75.15
2018-11-23T11:11:55.873Z,74.27
2018-11-23T11:14:22.944Z,75.87
2018-11-23T11:16:50.720Z,69.42
2018-11-23T11:19:17.852Z,73.97
2018-11-23T11:21:45.060Z,78.07
2018-11-23T11:24:12.129Z,68.72
2018-11-23T11:26:39.484Z,78.42
2018-11-23T11:29:06.593Z,68.45
2018-11-23T11:31:33.689Z,84.35
2018-11-23T11:34:00.788Z,62.30
2018-11-23T11:36:27.883Z,64.80
2018-11-23T11:38:55.168Z,74.15
2018-11-23T11:42:00.246Z,73.70
2018-11-23T11:51:39.019Z,76.77
2018-11-23T11:54:06.157Z,76.42
2018-11-23T11:56:33.632Z,73.35
2018-11-23T11:59:00.746Z,71.55
2018-11-23T12:01:28.325Z,77.70
2018-11-23T12:03:56.109Z,72.55
2018-11-23T12:06:23.192Z,65.95
2018-11-23T12:08:50.256Z,69.25
2018-11-23T12:11:17.308Z,65.47
2018-11-23T12:13:44.813Z,68.47
2018-11-23T12:16:12.525Z,58.98
2018-11-23T12:18:39.605Z,69.90
2018-11-23T12:21:06.689Z,113.72
2018-11-23T12:23:33.931Z,149.80
2018-11-23T12:26:01.009Z,216.45
2018-11-23T12:28:28.272Z,82.37
2018-11-23T12:30:55.332Z,142.20
2018-11-23T12:33:23.641Z,83.97
2018-11-23T12:35:50.752Z,168.72
2018-11-23T12:38:17.861Z,123.62
2018-11-23T12:40:44.949Z,129.42
2018-11-23T12:43:12.625Z,62.83
2018-11-23T12:45:39.750Z,76.02
2018-11-23T12:48:07.173Z,72.12
2018-11-23T12:50:34.284Z,62.93
2018-11-23T12:53:06.307Z,73.42
2018-11-23T12:55:29.238Z,80.72
2018-11-23T12:57:57.570Z,96.28
2018-11-23T13:00:28.142Z,89.60
2018-11-23T13:02:57.944Z,80.67
2018-11-23T13:05:26.127Z,82.60
2018-11-23T13:07:54.901Z,76.72
2018-11-23T13:10:22.864Z,85.45
2018-11-23T13:12:50.931Z,81.97
2018-11-23T13:15:17.065Z,82.95
2018-11-23T13:17:44.134Z,82.78
2018-11-23T13:20:12.698Z,78.50
2018-11-23T13:22:40.876Z,72.75
2018-11-23T13:25:14.062Z,85.03
2018-11-23T13:27:41.161Z,68.50
2018-11-23T13:30:11.914Z,88.80
2018-11-23T13:32:39.703Z,84.65
2018-11-23T13:35:08.521Z,85.70
2018-11-23T13:37:36.163Z,74.22
2018-11-23T13:40:04.252Z,70.30
2018-11-23T13:42:31.329Z,71.72
2018-11-23T13:44:58.405Z,89.30
2018-11-23T13:47:26.517Z,64.55
2018-11-23T13:49:54.120Z,79.62
2018-11-23T13:52:21.186Z,70.45
2018-11-23T13:54:48.716Z,69.22
2018-11-23T13:57:15.773Z,70.17
2018-11-23T13:59:43.036Z,68.10
2018-11-23T14:02:10.109Z,62.98
2018-11-23T14:04:37.199Z,66.90
2018-11-23T14:07:04.279Z,78.22
2018-11-23T14:09:31.904Z,73.35
2018-11-23T14:12:00.147Z,77.65
2018-11-23T14:14:27.210Z,73.02
2018-11-23T14:16:54.869Z,67.82
2018-11-23T14:19:21.970Z,66.70
2018-11-23T14:21:51.484Z,73.78
2018-11-23T14:24:21.984Z,71.42
2018-11-23T14:26:49.305Z,78.47
2018-11-23T14:29:16.385Z,77.15
2018-11-23T14:31:43.448Z,83.65
2018-11-23T14:34:10.562Z,68.05
2018-11-23T14:36:37.673Z,78.15
2018-11-23T14:39:07.002Z,70.67
2018-11-23T14:41:34.104Z,73.12
2018-11-23T14:44:06.762Z,72.85
2018-11-23T14:46:28.463Z,79.53
2018-11-23T14:48:55.533Z,71.25
2018-11-23T14:51:23.128Z,73.05
2018-11-23T14:53:50.522Z,80.90
2018-11-23T14:56:17.624Z,90.65
2018-11-23T14:58:44.994Z,79.58
2018-11-23T15:01:12.060Z,73.78
2018-11-23T15:03:39.577Z,72.20
2018-11-23T15:06:07.163Z,83.47
2018-11-23T15:08:34.225Z,74.30
2018-11-23T15:11:01.301Z,83.42
2018-11-23T15:13:28.420Z,78.67
2018-11-23T15:15:55.506Z,101.02
2018-11-23T15:18:23.629Z,79.50
2018-11-23T15:20:51.511Z,83.07
2018-11-23T15:23:19.465Z,85.55
2018-11-23T15:25:46.553Z,88.50
2018-11-23T15:28:14.140Z,84.60
2018-11-23T15:30:42.440Z,98.58
2018-11-23T15:33:11.436Z,79.58
2018-11-23T15:35:39.145Z,92.53
2018-11-23T15:38:10.335Z,90.42
2018-11-23T15:40:36.177Z,102.07
2018-11-23T15:43:04.715Z,90.25
2018-11-23T15:45:32.694Z,97.78
2018-11-23T15:48:00.239Z,96.55
2018-11-23T15:50:30.355Z,93.78
2018-11-23T15:52:58.084Z,92.65
2018-11-23T15:55:27.593Z,99.62
2018-11-23T15:57:56.619Z,89.13
2018-11-23T16:00:26.805Z,91.55
2018-11-23T16:02:54.076Z,84.90
2018-11-23T16:05:21.426Z,89.07
2018-11-23T16:07:49.453Z,85.32
2018-11-23T16:10:21.772Z,87.12
2018-11-23T16:12:51.881Z,81.97
2018-11-23T16:15:20.842Z,92.40
2018-11-23T16:17:49.120Z,98.30
2018-11-23T16:20:18.748Z,102.55
2018-11-23T16:22:48.732Z,93.80
2018-11-23T16:25:17.077Z,86.42
2018-11-23T16:27:45.572Z,98.27
2018-11-23T16:30:17.293Z,93.95
2018-11-23T16:32:45.801Z,102.32
2018-11-23T16:35:14.179Z,107.17
2018-11-23T16:37:41.268Z,98.30
2018-11-23T16:40:11.312Z,116.45
2018-11-23T16:42:38.770Z,93.52
2018-11-23T16:45:10.917Z,110.95
2018-11-23T16:47:38.430Z,109.03
2018-11-23T16:50:06.564Z,96.50
2018-11-23T16:52:33.711Z,104.97
2018-11-23T16:55:01.074Z,113.47
2018-11-23T16:57:28.256Z,111.35
2018-11-23T16:59:55.614Z,102.78
2018-11-23T17:02:22.716Z,105.40
2018-11-23T17:04:49.788Z,104.15
2018-11-23T17:07:16.905Z,104.27
2018-11-23T17:09:44.264Z,122.35
2018-11-23T17:12:11.366Z,113.90
2018-11-23T17:14:38.643Z,130.85
2018-11-23T17:17:05.756Z,110.78
2018-11-23T17:19:33.151Z,135.15
2018-11-23T17:22:00.456Z,102.05
2018-11-23T17:24:28.601Z,123.90
2018-11-23T17:26:55.757Z,128.82
2018-11-23T17:29:23.116Z,140.37
2018-11-23T17:31:49.919Z,124.22
2018-11-23T17:34:17.031Z,119.75
2018-11-23T17:36:44.128Z,127.75
2018-11-23T17:39:11.244Z,116.57
2018-11-23T17:41:38.318Z,124.97
2018-11-23T17:44:06.029Z,115.52
2018-11-23T17:46:33.093Z,116.37
2018-11-23T17:49:00.190Z,107.52
2018-11-23T17:51:27.284Z,130.55
2018-11-23T17:53:54.905Z,121.20
2018-11-23T17:56:21.997Z,139.20
2018-11-23T17:58:50.538Z,124.02
2018-11-23T18:01:20.390Z,120.53
2018-11-23T18:03:49.977Z,109.57
2018-11-23T18:06:18.766Z,125.10
2018-11-23T18:08:47.816Z,109.50
2018-11-23T18:11:16.701Z,123.65
2018-11-23T18:13:46.131Z,135.43
2018-11-23T18:16:14.685Z,113.37
2018-11-23T18:18:43.353Z,113.03
2018-11-23T18:21:11.788Z,139.00
2018-11-23T18:23:41.285Z,111.80
2018-11-23T18:26:10.329Z,116.47
2018-11-23T18:28:38.862Z,119.47
2018-11-23T18:31:07.845Z,113.60
2018-11-23T18:33:35.056Z,103.05
2018-11-23T18:36:02.154Z,124.10
2018-11-23T18:38:29.233Z,140.88
2018-11-23T18:40:56.365Z,120.40
2018-11-23T18:43:23.479Z,148.40
2018-11-23T18:45:50.564Z,108.10
2018-11-23T18:48:17.933Z,101.80
2018-11-23T18:50:45.019Z,91.22
2018-11-23T18:55:46.246Z,102.62
2018-11-23T18:58:13.367Z,93.50
2018-11-23T19:00:40.437Z,94.50
2018-11-23T19:03:07.756Z,93.05
2018-11-23T19:05:34.948Z,104.50
2018-11-23T19:08:03.064Z,114.95
2018-11-23T19:10:30.368Z,108.03
2018-11-23T19:12:57.478Z,107.22
2018-11-23T19:15:25.645Z,102.55
2018-11-23T19:17:51.669Z,88.67
2018-11-23T19:20:20.618Z,104.45
2018-11-23T19:22:48.984Z,101.35
2018-11-23T19:25:16.052Z,112.20
2018-11-23T19:27:43.127Z,95.07
2018-11-23T19:30:12.782Z,94.28
2018-11-23T19:32:39.868Z,100.85
2018-11-23T19:35:07.272Z,82.20
2018-11-23T19:37:34.345Z,103.90
2018-11-23T19:40:01.568Z,91.97
2018-11-23T19:42:28.658Z,96.22
2018-11-23T19:44:55.760Z,94.10
2018-11-23T19:47:22.816Z,116.30
2018-11-23T19:49:49.914Z,92.67
2018-11-23T19:52:16.976Z,109.27
2018-11-23T19:57:18.556Z,107.60
2018-11-23T19:59:45.787Z,100.00
2018-11-23T20:02:13.279Z,108.57
2018-11-23T20:04:40.861Z,97.78
2018-11-23T20:07:07.932Z,96.63
2018-11-23T20:09:39.864Z,91.65
2018-11-23T20:12:02.503Z,96.35
2018-11-23T20:14:29.594Z,100.00
2018-11-23T20:16:56.892Z,92.37
2018-11-23T20:19:24.000Z,96.40
2018-11-23T20:21:51.273Z,121.50
2018-11-23T20:24:18.356Z,106.25
2018-11-23T20:26:47.821Z,90.40
2018-11-23T20:29:14.878Z,86.60
2018-11-23T20:31:42.121Z,95.00
2018-11-23T20:34:09.245Z,90.62
2018-11-23T20:36:36.437Z,99.83
2018-11-23T20:39:06.356Z,99.80
2018-11-23T20:41:33.447Z,87.35
2018-11-23T20:44:01.291Z,88.85
2018-11-23T20:46:28.374Z,96.87
2018-11-23T20:48:55.600Z,83.10
2018-11-23T20:51:22.728Z,87.53
2018-11-23T20:53:49.816Z,94.52
2018-11-23T20:56:16.909Z,87.37
2018-11-23T20:58:43.968Z,93.87
2018-11-23T21:01:11.039Z,82.75
2018-11-23T21:03:38.122Z,93.03
2018-11-23T21:06:05.559Z,83.35
2018-11-23T21:08:32.645Z,94.72
2018-11-23T21:10:59.904Z,81.65
2018-11-23T21:13:27.297Z,89.28
2018-11-23T21:15:54.523Z,86.55
2018-11-23T21:18:21.620Z,105.65
2018-11-23T21:23:23.091Z,93.95
2018-11-23T21:25:50.752Z,92.27
2018-11-23T21:28:17.816Z,111.95
2018-11-23T21:30:44.892Z,92.45
2018-11-23T21:33:11.997Z,93.12
2018-11-23T21:35:39.094Z,75.80
2018-11-23T21:38:06.193Z,85.35
2018-11-23T21:40:33.251Z,83.72
2018-11-23T21:43:00.323Z,78.75
2018-11-23T21:45:27.449Z,90.47
2018-11-23T21:47:54.712Z,84.55
2018-11-23T21:50:25.383Z,74.87
2018-11-23T21:52:49.001Z,76.97
2018-11-23T21:55:20.404Z,71.10
2018-11-23T21:57:47.975Z,72.10
2018-11-23T22:00:15.422Z,84.87
2018-11-23T22:02:42.548Z,72.17
2018-11-23T22:05:09.875Z,79.05
2018-11-23T22:07:37.020Z,87.82
2018-11-23T22:10:08.445Z,84.25
2018-11-23T22:12:35.884Z,86.78
2018-11-23T22:15:03.075Z,97.97
2018-11-23T22:17:30.171Z,85.50
2018-11-23T22:19:57.271Z,75.12
2018-11-23T22:22:24.391Z,80.70
2018-11-23T22:24:52.058Z,74.30
2018-11-23T22:27:19.298Z,75.78
2018-11-23T22:29:46.565Z,75.92
2018-11-23T22:32:13.657Z,73.67
2018-11-23T22:34:41.106Z,66.47
2018-11-23T22:37:08.172Z,72.30
2018-11-23T22:39:35.404Z,74.60
2018-11-23T22:42:02.655Z,92.88
2018-11-23T22:44:29.915Z,79.65
2018-11-23T22:46:56.995Z,98.82
2018-11-23T22:49:24.089Z,81.90
2018-11-23T22:51:51.248Z,90.10
2018-11-23T22:54:18.323Z,79.85
2018-11-23T22:56:45.432Z,81.42
2018-11-23T22:59:12.522Z,86.60
2018-11-23T23:01:39.608Z,75.12
2018-11-23T23:04:06.708Z,86.87
2018-11-23T23:06:33.784Z,96.20
2018-11-23T23:09:01.753Z,77.78
2018-11-23T23:11:28.928Z,79.60
2018-11-23T23:13:55.995Z,71.22
2018-11-23T23:16:23.065Z,81.60
2018-11-23T23:18:50.204Z,78.02
2018-11-23T23:21:17.272Z,83.45
2018-11-23T23:23:44.340Z,76.07
2018-11-23T23:26:11.489Z,84.13
2018-11-23T23:28:39.617Z,83.07
2018-11-23T23:31:07.256Z,87.88
2018-11-23T23:33:35.341Z,77.10
2018-11-23T23:36:04.388Z,78.75
2018-11-23T23:38:31.540Z,85.45
2018-11-23T23:40:59.760Z,77.95
2018-11-23T23:43:27.025Z,80.22
2018-11-23T23:45:54.200Z,91.45
2018-11-23T23:48:21.321Z,81.15
2018-11-23T23:50:50.022Z,88.35
2018-11-23T23:53:15.896Z,78.67
2018-11-23T23:55:44.947Z,73.20
2018-11-23T23:58:12.037Z,78.65
